Time;durP1;ratioP1;P1;durP2;ratioP2;P2;SDS_P1;SDS_P2;PMS_P1;PMS_P2;Temp;Humidity;BMP_temperature;BMP_pressure;BME280_temperature;BME280_humidity;BME280_pressure;Samples;Min_cycle;Max_cycle;Signal;HPM_P1;HPM_P2
2022/12/07 00:01:18;;;;;;;12.57;9.60;;;5.20;1.00;;;;;;4976823;28;20448;-54
2022/12/07 00:03:46;;;;;;;14.67;9.50;;;5.30;1.00;;;;;;4978518;28;20471;-55
2022/12/07 00:06:14;;;;;;;10.90;9.07;;;5.30;1.00;;;;;;4976867;28;20452;-56
2022/12/07 00:08:40;;;;;;;15.03;8.90;;;5.30;1.00;;;;;;4976278;28;20454;-53
2022/12/07 00:11:11;;;;;;;13.57;9.80;;;5.10;1.00;;;;;;4979773;28;20447;-54
2022/12/07 00:13:37;;;;;;;12.47;8.57;;;5.10;1.00;;;;;;4980866;28;20479;-52
2022/12/07 00:16:09;;;;;;;12.67;9.80;;;5.10;1.00;;;;;;4979770;28;20463;-53
2022/12/07 00:18:35;;;;;;;12.50;9.23;;;5.10;1.00;;;;;;4980906;28;20459;-54
2022/12/07 00:21:04;;;;;;;13.73;9.27;;;5.20;1.00;;;;;;4982258;28;20495;-55
2022/12/07 00:23:30;;;;;;;12.27;9.20;;;5.10;1.00;;;;;;4985910;28;20872;-50
2022/12/07 00:25:55;;;;;;;12.30;9.10;;;5.20;1.00;;;;;;4978734;28;20456;-54
2022/12/07 00:28:21;;;;;;;12.00;8.73;;;5.30;1.00;;;;;;4975881;28;20480;-52
2022/12/07 00:30:46;;;;;;;14.30;10.20;;;5.20;1.00;;;;;;4977667;28;20198;-53
2022/12/07 00:33:12;;;;;;;11.00;8.40;;;5.30;1.00;;;;;;4984787;28;20366;-54
2022/12/07 00:35:38;;;;;;;14.70;8.30;;;5.20;1.00;;;;;;4980371;28;20204;-52
2022/12/07 00:38:03;;;;;;;13.00;8.10;;;5.10;1.00;;;;;;4985357;28;20256;-51
2022/12/07 00:40:29;;;;;;;11.93;8.80;;;5.10;1.00;;;;;;4982318;28;20316;-53
2022/12/07 00:42:54;;;;;;;12.27;8.80;;;5.20;1.00;;;;;;4985128;28;20251;-53
2022/12/07 00:45:20;;;;;;;13.70;9.60;;;5.10;1.00;;;;;;4979348;28;20788;-53
2022/12/07 00:47:45;;;;;;;13.67;9.03;;;5.10;1.00;;;;;;4985855;28;21361;-54
2022/12/07 00:50:11;;;;;;;13.13;8.07;;;5.10;1.00;;;;;;4984717;28;20194;-54
2022/12/07 00:52:37;;;;;;;13.90;9.50;;;5.10;1.00;;;;;;4980333;28;20239;-52
2022/12/07 00:55:02;;;;;;;12.70;9.07;;;5.00;1.00;;;;;;4981221;28;20205;-54
2022/12/07 00:57:31;;;;;;;11.97;9.03;;;5.00;1.00;;;;;;4981071;28;20198;-55
2022/12/07 00:59:57;;;;;;;14.93;9.73;;;5.00;1.00;;;;;;4979572;28;20543;-53
2022/12/07 01:02:23;;;;;;;14.30;10.37;;;5.00;1.00;;;;;;5000354;28;20474;-54
2022/12/07 01:04:49;;;;;;;14.70;10.00;;;5.10;1.00;;;;;;5004288;28;20465;-52
2022/12/07 01:07:14;;;;;;;14.43;9.33;;;5.20;1.00;;;;;;5006506;28;20440;-53
2022/12/07 01:09:40;;;;;;;12.10;8.20;;;5.20;1.00;;;;;;4988174;28;20277;-52
2022/12/07 01:12:06;;;;;;;14.33;9.27;;;5.30;1.00;;;;;;4982330;28;20280;-52
2022/12/07 01:14:31;;;;;;;16.03;10.50;;;5.30;1.00;;;;;;4983623;28;20212;-54
2022/12/07 01:16:57;;;;;;;13.40;9.50;;;5.40;1.00;;;;;;4980466;28;20193;-53
2022/12/07 01:19:22;;;;;;;16.13;10.23;;;5.30;1.00;;;;;;4982549;28;21808;-54
2022/12/07 01:21:48;;;;;;;13.00;8.73;;;5.30;1.00;;;;;;4982302;28;20193;-56
2022/12/07 01:24:13;;;;;;;14.07;9.57;;;5.30;1.00;;;;;;4994819;28;20208;-55
2022/12/07 01:26:39;;;;;;;14.93;10.70;;;5.30;1.00;;;;;;4981046;28;20189;-55
2022/12/07 01:29:05;;;;;;;16.10;11.10;;;5.40;1.00;;;;;;4990445;28;20196;-53
2022/12/07 01:31:31;;;;;;;14.17;10.50;;;5.40;1.00;;;;;;4986438;28;20228;-55
2022/12/07 01:33:59;;;;;;;13.80;9.50;;;5.40;1.00;;;;;;4996858;28;20258;-53
2022/12/07 01:36:29;;;;;;;14.23;9.30;;;5.40;1.00;;;;;;4989758;28;20574;-55
2022/12/07 01:38:58;;;;;;;14.17;10.20;;;5.40;1.00;;;;;;4982082;28;20844;-55
2022/12/07 01:41:26;;;;;;;13.87;10.17;;;5.50;1.00;;;;;;4979288;28;20668;-53
2022/12/07 01:44:24;;;;;;;14.73;10.20;;;5.60;1.00;;;;;;4981055;28;20477;-55
2022/12/07 01:46:58;;;;;;;17.67;10.60;;;5.60;1.00;;;;;;4989486;28;20479;-53
2022/12/07 01:49:48;;;;;;;15.73;9.83;;;5.50;1.00;;;;;;4981483;28;20456;-54
2022/12/07 01:52:20;;;;;;;14.50;9.33;;;5.40;1.00;;;;;;4980121;28;20418;-55
2022/12/07 01:54:49;;;;;;;15.63;9.20;;;5.60;1.00;;;;;;5001377;28;20442;-56
2022/12/07 01:57:16;;;;;;;12.27;10.03;;;5.50;1.00;;;;;;4967435;28;20458;-53
2022/12/07 01:59:44;;;;;;;17.70;10.40;;;5.50;1.00;;;;;;4997109;28;20445;-56
2022/12/07 02:02:48;;;;;;;13.83;10.40;;;5.50;1.00;;;;;;5001757;28;20443;-54
2022/12/07 02:05:15;;;;;;;12.80;9.27;;;5.40;1.00;;;;;;4959514;28;20462;-55
2022/12/07 02:07:40;;;;;;;12.53;9.63;;;5.20;1.00;;;;;;4982480;28;21762;-56
2022/12/07 02:10:20;;;;;;;14.60;9.90;;;5.20;1.00;;;;;;4980534;28;20965;-50
2022/12/07 02:12:51;;;;;;;14.83;9.60;;;5.20;1.00;;;;;;4980504;28;20198;-53
2022/12/07 02:15:18;;;;;;;11.70;8.63;;;5.20;1.00;;;;;;4984135;28;20444;-53
2022/12/07 02:18:00;;;;;;;12.20;9.13;;;5.30;1.00;;;;;;4995732;28;20460;-53
2022/12/07 02:20:32;;;;;;;10.83;8.30;;;5.10;1.00;;;;;;4993228;28;20453;-52
2022/12/07 02:23:27;;;;;;;12.50;9.03;;;5.20;1.00;;;;;;4991247;28;20554;-52
2022/12/07 02:26:17;;;;;;;11.37;7.93;;;5.10;1.00;;;;;;4998347;28;20443;-54
2022/12/07 02:29:09;;;;;;;12.60;8.83;;;5.10;1.00;;;;;;4991652;28;21013;-55
2022/12/07 02:31:38;;;;;;;10.97;7.93;;;5.00;1.00;;;;;;5000009;28;20436;-52
2022/12/07 02:34:11;;;;;;;13.40;8.30;;;4.80;1.00;;;;;;4995686;28;20517;-56
2022/12/07 02:36:43;;;;;;;9.60;7.70;;;4.80;1.00;;;;;;4984794;28;20844;-53
2022/12/07 02:39:19;;;;;;;10.23;7.07;;;4.60;1.00;;;;;;4984349;28;20427;-55
2022/12/07 02:41:51;;;;;;;10.00;7.20;;;4.60;1.00;;;;;;4986969;28;20546;-52
2022/12/07 02:44:24;;;;;;;9.77;6.80;;;4.60;1.00;;;;;;4996223;28;20480;-52
2022/12/07 02:47:03;;;;;;;9.47;7.40;;;4.50;1.00;;;;;;4985622;28;20966;-54
2022/12/07 02:49:30;;;;;;;11.90;8.00;;;4.50;1.00;;;;;;4995419;28;20511;-51
2022/12/07 02:51:55;;;;;;;11.27;8.60;;;4.50;1.00;;;;;;4994188;28;20572;-53
2022/12/07 02:54:22;;;;;;;11.70;9.10;;;4.50;1.00;;;;;;4990337;28;20518;-54
2022/12/07 02:56:53;;;;;;;10.10;8.50;;;4.50;1.00;;;;;;4992258;28;20192;-54
2022/12/07 02:59:40;;;;;;;11.10;7.83;;;4.40;1.00;;;;;;4990463;28;20448;-52
2022/12/07 03:02:25;;;;;;;11.80;7.53;;;4.50;1.00;;;;;;4996754;28;20462;-53
2022/12/07 03:04:59;;;;;;;10.33;8.07;;;4.50;1.00;;;;;;4994156;28;21083;-56
2022/12/07 03:07:33;;;;;;;10.20;7.40;;;4.60;1.00;;;;;;5004698;28;20443;-55
2022/12/07 03:10:11;;;;;;;10.83;7.53;;;4.60;1.00;;;;;;4994772;28;20531;-55
2022/12/07 03:13:04;;;;;;;10.60;8.17;;;4.70;1.00;;;;;;4990178;28;20937;-55
2022/12/07 03:15:33;;;;;;;13.67;7.83;;;4.60;1.00;;;;;;4984584;28;20464;-50
2022/12/07 03:18:01;;;;;;;12.47;8.97;;;4.70;1.00;;;;;;4991583;28;20450;-54
2022/12/07 03:20:29;;;;;;;11.33;8.50;;;4.70;1.00;;;;;;4987533;28;21004;-53
2022/12/07 03:22:54;;;;;;;11.60;7.40;;;4.70;1.00;;;;;;4981273;28;20478;-53
2022/12/07 03:25:21;;;;;;;9.50;7.40;;;4.70;1.00;;;;;;4980490;28;21155;-56
2022/12/07 03:27:56;;;;;;;9.33;7.60;;;4.80;1.00;;;;;;4977273;28;20460;-56
2022/12/07 03:30:28;;;;;;;12.57;8.90;;;4.90;1.00;;;;;;4979369;28;20456;-54
2022/12/07 03:33:05;;;;;;;12.63;8.83;;;5.00;1.00;;;;;;4978253;28;20956;-54
2022/12/07 03:35:43;;;;;;;12.53;8.60;;;4.90;1.00;;;;;;4978598;28;21025;-55
2022/12/07 03:38:42;;;;;;;12.20;9.60;;;4.80;1.00;;;;;;4981228;28;20739;-55
2022/12/07 03:41:25;;;;;;;14.43;9.77;;;4.80;1.00;;;;;;4973555;28;20455;-52
2022/12/07 03:43:54;;;;;;;14.07;9.90;;;4.80;1.00;;;;;;4976378;28;20657;-54
2022/12/07 03:46:38;;;;;;;14.77;9.83;;;4.90;1.00;;;;;;4993776;28;20970;-54
2022/12/07 03:49:20;;;;;;;14.73;10.07;;;5.00;1.00;;;;;;5003167;28;20801;-55
2022/12/07 03:52:00;;;;;;;13.57;10.13;;;5.00;1.00;;;;;;5000265;28;20455;-53
2022/12/07 03:54:44;;;;;;;12.13;9.00;;;5.00;1.00;;;;;;4998361;28;20479;-53
2022/12/07 03:57:12;;;;;;;13.90;9.97;;;4.80;1.00;;;;;;5000139;28;20538;-53
2022/12/07 03:59:39;;;;;;;14.47;10.60;;;4.70;1.00;;;;;;4989886;28;20452;-52
2022/12/07 04:02:06;;;;;;;15.97;10.80;;;4.80;1.00;;;;;;5000089;28;20862;-54
2022/12/07 04:04:33;;;;;;;14.17;10.03;;;4.70;1.00;;;;;;5002933;28;20450;-52
2022/12/07 04:06:58;;;;;;;12.60;9.27;;;4.90;1.00;;;;;;4998922;28;20457;-51
2022/12/07 04:09:24;;;;;;;12.43;9.80;;;4.80;1.00;;;;;;4992130;28;20976;-54
2022/12/07 04:11:50;;;;;;;15.03;10.00;;;4.80;1.00;;;;;;4986952;28;21456;-55
2022/12/07 04:14:18;;;;;;;15.17;10.13;;;4.90;1.00;;;;;;4988609;28;20560;-55
2022/12/07 04:16:45;;;;;;;15.80;9.70;;;4.90;1.00;;;;;;4990727;28;20193;-53
2022/12/07 04:19:11;;;;;;;14.63;10.50;;;4.90;1.00;;;;;;4970839;28;20449;-54
2022/12/07 04:21:37;;;;;;;13.43;9.27;;;4.80;1.00;;;;;;4992198;28;20456;-50
2022/12/07 04:24:03;;;;;;;16.00;9.67;;;4.70;1.00;;;;;;4988321;28;20475;-54
2022/12/07 04:26:29;;;;;;;16.33;10.03;;;4.70;1.00;;;;;;4993810;28;20197;-55
2022/12/07 04:28:54;;;;;;;16.73;10.80;;;4.60;1.00;;;;;;4985938;28;20459;-53
2022/12/07 04:31:20;;;;;;;13.63;10.00;;;4.60;1.00;;;;;;4997289;28;20630;-52
2022/12/07 04:33:46;;;;;;;17.50;10.83;;;4.50;1.00;;;;;;4996758;28;20272;-53
2022/12/07 04:36:11;;;;;;;12.20;8.87;;;4.50;1.00;;;;;;4978442;28;20331;-53
2022/12/07 04:38:37;;;;;;;12.97;8.90;;;4.50;1.00;;;;;;4978447;28;20193;-55
2022/12/07 04:41:07;;;;;;;14.07;9.60;;;4.30;1.00;;;;;;4981099;28;20204;-56
2022/12/07 04:43:33;;;;;;;14.37;10.50;;;4.50;1.00;;;;;;4988856;28;20212;-55
2022/12/07 04:45:59;;;;;;;13.00;9.87;;;4.50;1.00;;;;;;4992745;28;20455;-54
2022/12/07 04:48:25;;;;;;;13.33;9.13;;;4.40;1.00;;;;;;4991587;28;20485;-54
2022/12/07 04:50:51;;;;;;;13.50;9.73;;;4.50;1.00;;;;;;5000846;28;20433;-52
2022/12/07 04:53:16;;;;;;;14.07;9.70;;;4.40;1.00;;;;;;4979518;28;20275;-56
2022/12/07 04:55:42;;;;;;;10.63;7.87;;;4.30;1.00;;;;;;4981311;28;20190;-53
2022/12/07 04:58:07;;;;;;;17.60;10.10;;;4.10;1.00;;;;;;4991412;28;20204;-54
2022/12/07 05:00:33;;;;;;;17.33;10.20;;;4.00;1.00;;;;;;4996647;28;20192;-51
2022/12/07 05:02:58;;;;;;;15.30;10.20;;;4.00;1.00;;;;;;4989359;28;20209;-54
2022/12/07 05:05:24;;;;;;;12.80;8.80;;;4.00;1.00;;;;;;4990292;28;20193;-51
2022/12/07 05:07:50;;;;;;;14.67;9.73;;;4.00;1.00;;;;;;4999940;28;20247;-53
2022/12/07 05:10:16;;;;;;;16.10;10.97;;;4.00;1.00;;;;;;4994594;28;20201;-54
2022/12/07 05:12:42;;;;;;;17.20;10.23;;;4.00;1.00;;;;;;4991259;28;20185;-54
2022/12/07 05:15:07;;;;;;;12.00;8.80;;;4.20;1.00;;;;;;4991563;28;20450;-54
2022/12/07 05:17:33;;;;;;;10.30;7.83;;;4.30;1.00;;;;;;4993783;28;20272;-51
2022/12/07 05:19:59;;;;;;;12.70;8.13;;;4.20;1.00;;;;;;5004133;28;20242;-53
2022/12/07 05:22:27;;;;;;;10.00;7.90;;;4.20;1.00;;;;;;4992567;28;20195;-53
2022/12/07 05:24:54;;;;;;;19.30;7.57;;;4.40;1.00;;;;;;4989554;28;20282;-52
2022/12/07 05:27:19;;;;;;;11.57;8.40;;;4.40;1.00;;;;;;4989912;28;20775;-54
2022/12/07 05:29:45;;;;;;;11.63;8.77;;;4.50;1.00;;;;;;4997837;28;20455;-51
2022/12/07 05:32:11;;;;;;;11.00;7.57;;;4.50;1.00;;;;;;4998644;28;20270;-53
2022/12/07 05:34:36;;;;;;;13.20;7.97;;;4.60;1.00;;;;;;4999901;28;20279;-54
2022/12/07 05:37:02;;;;;;;14.50;8.03;;;4.70;1.00;;;;;;4997857;28;20251;-55
2022/12/07 05:39:27;;;;;;;9.17;6.70;;;4.80;1.00;;;;;;4993646;28;20194;-54
2022/12/07 05:42:11;;;;;;;10.13;6.93;;;4.80;1.00;;;;;;5009091;28;20611;-55
2022/12/07 05:44:41;;;;;;;9.53;6.80;;;4.90;1.00;;;;;;4997830;28;20360;-55
2022/12/07 05:47:07;;;;;;;9.70;6.87;;;5.00;1.00;;;;;;5002597;28;20819;-53
2022/12/07 05:49:32;;;;;;;9.50;6.87;;;5.00;1.00;;;;;;4995423;28;20449;-55
2022/12/07 05:51:58;;;;;;;9.43;6.40;;;5.00;1.00;;;;;;5004542;28;20222;-53
2022/12/07 05:54:24;;;;;;;8.40;5.43;;;5.10;1.00;;;;;;4998241;28;20188;-53
2022/12/07 05:56:50;;;;;;;9.37;6.77;;;5.10;1.00;;;;;;4995051;28;20514;-56
2022/12/07 05:59:22;;;;;;;9.80;6.43;;;5.10;1.00;;;;;;5000296;28;20189;-53
2022/12/07 06:01:53;;;;;;;8.37;6.20;;;5.10;1.00;;;;;;4996307;28;20287;-55
2022/12/07 06:04:19;;;;;;;6.90;5.40;;;5.20;1.00;;;;;;4992557;28;21052;-53
2022/12/07 06:06:44;;;;;;;7.00;4.90;;;5.10;1.00;;;;;;4995833;28;20535;-54
2022/12/07 06:09:10;;;;;;;9.60;6.90;;;5.20;1.00;;;;;;4997200;28;20439;-53
2022/12/07 06:14:20;;;;;;;5.97;4.97;;;5.40;1.00;;;;;;4991516;28;20459;-52
2022/12/07 06:16:46;;;;;;;5.10;4.60;;;5.40;1.00;;;;;;4991737;28;20441;-53
2022/12/07 06:19:11;;;;;;;7.43;5.33;;;5.50;1.00;;;;;;5005679;28;20275;-54
2022/12/07 06:21:37;;;;;;;6.80;5.20;;;5.50;1.00;;;;;;4988949;28;20246;-54
2022/12/07 06:24:03;;;;;;;6.63;4.50;;;5.30;1.00;;;;;;5002154;28;20268;-54
2022/12/07 06:26:28;;;;;;;5.43;4.20;;;5.40;1.00;;;;;;5008078;28;20200;-55
2022/12/07 06:28:54;;;;;;;7.37;4.80;;;5.40;1.00;;;;;;5003078;28;20451;-55
2022/12/07 06:31:20;;;;;;;5.57;4.63;;;5.50;1.00;;;;;;5002760;28;20231;-54
2022/12/07 06:33:45;;;;;;;5.50;4.30;;;5.60;1.00;;;;;;5000783;28;20190;-56
2022/12/07 06:36:11;;;;;;;7.53;4.30;;;5.60;1.00;;;;;;5000953;28;20290;-54
2022/12/07 06:38:37;;;;;;;6.67;4.53;;;5.60;1.00;;;;;;5000911;28;20287;-56
2022/12/07 06:41:03;;;;;;;5.27;4.77;;;5.60;1.00;;;;;;4998807;28;20470;-55
2022/12/07 06:43:29;;;;;;;6.30;5.07;;;5.60;1.00;;;;;;4997235;28;20907;-54
2022/12/07 06:45:55;;;;;;;5.77;4.60;;;5.50;1.00;;;;;;4996524;28;20537;-53
2022/12/07 06:48:20;;;;;;;7.27;5.60;;;5.40;1.00;;;;;;4995526;28;20488;-53
2022/12/07 06:50:47;;;;;;;6.10;5.20;;;5.30;1.00;;;;;;4996113;28;20200;-56
2022/12/07 06:53:12;;;;;;;4.57;4.07;;;5.30;1.00;;;;;;4998033;28;20189;-55
2022/12/07 06:55:38;;;;;;;5.47;4.70;;;5.20;1.00;;;;;;4998079;28;20486;-52
2022/12/07 06:58:04;;;;;;;6.83;4.63;;;5.10;1.00;;;;;;5001383;28;20201;-56
2022/12/07 07:00:29;;;;;;;5.20;4.70;;;5.10;1.00;;;;;;4998233;28;20205;-55
2022/12/07 07:02:55;;;;;;;6.70;5.40;;;5.10;1.00;;;;;;4998617;28;20222;-55
2022/12/07 07:05:21;;;;;;;6.33;5.10;;;5.10;1.00;;;;;;5004773;28;20180;-53
2022/12/07 07:07:50;;;;;;;5.70;4.97;;;5.10;1.00;;;;;;5001725;28;20190;-56
2022/12/07 07:10:16;;;;;;;6.13;5.20;;;5.00;1.00;;;;;;4993724;28;20453;-54
2022/12/07 07:12:42;;;;;;;6.17;5.57;;;5.00;1.00;;;;;;4999635;28;20467;-55
2022/12/07 07:15:08;;;;;;;7.13;5.67;;;5.00;1.00;;;;;;4997184;28;20270;-54
2022/12/07 07:17:33;;;;;;;6.70;5.67;;;4.90;1.00;;;;;;4999981;28;20190;-52
2022/12/07 07:19:59;;;;;;;10.63;7.90;;;4.80;1.00;;;;;;4995774;28;20933;-53
2022/12/07 07:22:24;;;;;;;9.83;7.40;;;4.90;1.00;;;;;;4992611;28;20182;-52
2022/12/07 07:24:50;;;;;;;9.17;6.57;;;4.90;1.00;;;;;;4995632;28;20228;-53
2022/12/07 07:27:15;;;;;;;7.53;6.20;;;4.80;1.00;;;;;;4997343;28;20243;-55
2022/12/07 07:29:41;;;;;;;6.90;5.10;;;4.70;1.00;;;;;;5002036;28;20212;-56
2022/12/07 07:32:07;;;;;;;7.40;6.63;;;4.80;1.00;;;;;;4998820;28;20191;-52
2022/12/07 07:34:33;;;;;;;8.37;5.77;;;4.70;1.00;;;;;;4996868;28;20246;-55
2022/12/07 07:36:58;;;;;;;7.67;5.40;;;4.70;1.00;;;;;;4997360;28;20195;-55
2022/12/07 07:39:24;;;;;;;6.57;5.03;;;4.70;1.00;;;;;;5000903;28;20542;-54
2022/12/07 07:41:50;;;;;;;6.00;5.40;;;4.80;1.00;;;;;;5004817;28;20193;-56
2022/12/07 07:44:15;;;;;;;8.30;5.87;;;4.80;1.00;;;;;;4997470;28;20209;-50
2022/12/07 07:46:41;;;;;;;5.83;5.20;;;4.70;1.00;;;;;;4992379;28;20226;-53
2022/12/07 07:49:06;;;;;;;5.83;4.93;;;4.80;1.00;;;;;;4999484;28;20203;-56
2022/12/07 07:51:35;;;;;;;5.07;4.57;;;4.90;1.00;;;;;;4997853;28;20287;-54
2022/12/07 07:54:00;;;;;;;7.00;5.40;;;4.90;1.00;;;;;;4992633;28;20225;-55
2022/12/07 07:56:26;;;;;;;6.87;5.27;;;4.90;1.00;;;;;;5006776;28;20478;-54
2022/12/07 07:58:52;;;;;;;6.23;5.53;;;5.00;1.00;;;;;;5004388;28;20197;-53
2022/12/07 08:01:19;;;;;;;6.87;6.17;;;5.00;1.00;;;;;;4993793;28;20220;-52
2022/12/07 08:03:46;;;;;;;8.80;6.63;;;5.10;1.00;;;;;;4998183;28;20558;-53
2022/12/07 08:06:12;;;;;;;7.90;6.93;;;5.10;1.00;;;;;;4999237;28;20789;-54
2022/12/07 08:08:37;;;;;;;8.73;7.33;;;5.10;1.00;;;;;;4998440;28;20448;-55
2022/12/07 08:11:07;;;;;;;7.80;6.67;;;5.30;1.00;;;;;;4996692;28;20177;-55
2022/12/07 08:13:33;;;;;;;7.57;6.87;;;5.30;1.00;;;;;;4996787;28;20639;-53
2022/12/07 08:16:02;;;;;;;10.40;8.10;;;5.40;1.00;;;;;;4991464;28;20539;-53
2022/12/07 08:18:28;;;;;;;8.57;7.67;;;5.40;1.00;;;;;;5017262;28;20197;-56
2022/12/07 08:21:00;;;;;;;8.03;6.50;;;5.30;1.00;;;;;;4998312;28;20615;-54
2022/12/07 08:23:26;;;;;;;10.40;7.90;;;5.40;1.00;;;;;;4995843;28;20298;-53
2022/12/07 08:25:52;;;;;;;11.30;8.30;;;5.50;1.00;;;;;;4992725;28;20453;-53
2022/12/07 08:28:17;;;;;;;8.77;7.10;;;5.50;1.00;;;;;;5004889;28;20602;-53
2022/12/07 08:30:43;;;;;;;10.37;7.80;;;5.60;1.00;;;;;;5003284;28;20183;-53
2022/12/07 08:33:10;;;;;;;8.37;7.23;;;5.60;1.00;;;;;;4993675;28;20185;-55
2022/12/07 08:35:36;;;;;;;10.53;7.63;;;5.60;1.00;;;;;;4997686;28;20211;-53
2022/12/07 08:38:02;;;;;;;8.97;7.03;;;5.60;1.00;;;;;;4993553;28;20963;-54
2022/12/07 08:40:27;;;;;;;9.47;7.43;;;5.60;1.00;;;;;;5000461;28;20511;-53
2022/12/07 08:42:53;;;;;;;9.77;8.10;;;5.70;1.00;;;;;;4997258;28;20930;-54
2022/12/07 08:45:21;;;;;;;9.33;7.97;;;5.80;1.00;;;;;;4997477;28;20201;-53
2022/12/07 08:47:56;;;;;;;8.77;7.27;;;5.90;1.00;;;;;;5000666;28;20220;-52
2022/12/07 08:50:22;;;;;;;11.47;8.20;;;6.00;1.00;;;;;;4994799;28;20425;-52
2022/12/07 08:52:58;;;;;;;10.10;7.60;;;6.00;1.00;;;;;;5000769;28;20953;-54
2022/12/07 08:55:24;;;;;;;10.90;7.57;;;6.00;1.00;;;;;;4998430;28;20790;-53
2022/12/07 08:57:50;;;;;;;9.67;7.47;;;6.20;1.00;;;;;;5003377;28;20451;-53
2022/12/07 09:00:16;;;;;;;10.63;7.17;;;6.30;1.00;;;;;;5007982;28;20521;-54
2022/12/07 09:02:43;;;;;;;12.43;8.40;;;6.30;1.00;;;;;;4995810;28;20929;-55
2022/12/07 09:05:09;;;;;;;10.77;7.23;;;6.30;1.00;;;;;;5003138;28;20445;-54
2022/12/07 09:07:36;;;;;;;9.17;7.53;;;6.20;1.00;;;;;;5005389;28;20444;-54
2022/12/07 09:10:02;;;;;;;11.57;7.10;;;6.30;1.00;;;;;;5007752;28;20615;-53
2022/12/07 09:12:27;;;;;;;8.80;7.10;;;6.40;1.00;;;;;;5003055;28;20414;-54
2022/12/07 09:14:53;;;;;;;8.33;6.63;;;6.10;1.00;;;;;;4990614;28;20489;-55
2022/12/07 09:17:19;;;;;;;11.27;8.40;;;6.40;1.00;;;;;;4999607;28;20198;-55
2022/12/07 09:19:44;;;;;;;8.03;7.10;;;6.40;1.00;;;;;;4998925;28;20606;-54
2022/12/07 09:22:10;;;;;;;9.00;6.90;;;6.40;1.00;;;;;;5000638;28;20216;-56
2022/12/07 09:24:36;;;;;;;8.00;6.27;;;6.40;1.00;;;;;;4986182;28;20214;-52
2022/12/07 09:27:01;;;;;;;8.30;6.60;;;6.50;1.00;;;;;;5003501;28;20438;-51
2022/12/07 09:29:27;;;;;;;9.27;6.50;;;6.50;1.00;;;;;;4997476;28;20193;-54
2022/12/07 09:31:53;;;;;;;8.97;6.37;;;6.50;1.00;;;;;;4981671;28;20186;-56
2022/12/07 09:34:19;;;;;;;10.53;6.30;;;6.50;1.00;;;;;;5003246;28;20184;-53
2022/12/07 09:36:45;;;;;;;7.07;5.70;;;6.50;1.00;;;;;;4990175;28;20212;-55
2022/12/07 09:39:13;;;;;;;6.40;5.70;;;6.30;1.00;;;;;;5004993;28;20444;-55
2022/12/07 09:41:41;;;;;;;9.13;5.97;;;6.40;1.00;;;;;;4984812;28;20972;-53
2022/12/07 09:44:28;;;;;;;7.87;5.50;;;6.50;1.00;;;;;;4995568;28;20475;-54
2022/12/07 09:46:54;;;;;;;9.60;5.90;;;6.40;1.00;;;;;;4995345;28;20482;-55
2022/12/07 09:49:22;;;;;;;13.00;6.50;;;6.40;1.00;;;;;;4999046;28;20451;-53
2022/12/07 09:51:59;;;;;;;7.20;6.00;;;6.30;1.00;;;;;;5000639;28;20899;-54
2022/12/07 09:54:25;;;;;;;11.27;6.90;;;6.50;1.00;;;;;;5000197;28;20533;-55
2022/12/07 09:56:50;;;;;;;9.40;6.20;;;6.50;1.00;;;;;;4999822;28;20586;-54
2022/12/07 09:59:19;;;;;;;7.10;5.27;;;6.70;1.00;;;;;;5001921;28;20246;-54
2022/12/07 10:01:49;;;;;;;7.60;5.40;;;6.90;1.00;;;;;;4997826;28;20184;-54
2022/12/07 10:04:24;;;;;;;8.90;5.90;;;6.80;1.00;;;;;;4999007;28;20471;-53
2022/12/07 10:06:50;;;;;;;6.77;5.60;;;6.80;1.00;;;;;;4995121;28;20468;-52
2022/12/07 10:09:19;;;;;;;7.33;5.70;;;7.00;1.00;;;;;;4998891;28;20511;-52
2022/12/07 10:12:09;;;;;;;6.97;5.00;;;6.90;1.00;;;;;;5003182;28;20418;-52
2022/12/07 10:14:37;;;;;;;9.67;4.77;;;6.90;1.00;;;;;;5001477;28;20465;-54
2022/12/07 10:17:26;;;;;;;10.13;5.33;;;6.90;1.00;;;;;;5003974;28;20507;-52
2022/12/07 10:19:51;;;;;;;7.60;5.33;;;6.90;1.00;;;;;;4981121;28;20467;-56
2022/12/07 10:22:17;;;;;;;7.13;5.37;;;6.90;1.00;;;;;;5000181;28;20737;-54
2022/12/07 10:24:46;;;;;;;5.67;4.80;;;6.90;1.00;;;;;;5002831;28;20204;-57
2022/12/07 10:27:32;;;;;;;8.13;5.10;;;6.90;1.00;;;;;;4998462;28;20495;-54
2022/12/07 10:29:58;;;;;;;8.40;4.70;;;6.90;1.00;;;;;;5008454;28;20427;-55
2022/12/07 10:32:35;;;;;;;7.40;5.20;;;7.20;1.00;;;;;;5000683;28;20546;-55
2022/12/07 10:35:24;;;;;;;6.70;4.33;;;7.20;1.00;;;;;;5005449;28;20426;-56
2022/12/07 10:37:51;;;;;;;6.13;4.70;;;7.20;1.00;;;;;;4994010;28;20422;-55
2022/12/07 10:40:34;;;;;;;9.77;4.80;;;7.20;1.00;;;;;;5004063;28;20439;-57
2022/12/07 10:43:05;;;;;;;11.50;6.10;;;7.20;1.00;;;;;;5002289;28;20439;-55
2022/12/07 10:45:32;;;;;;;7.73;5.40;;;7.10;1.00;;;;;;5005721;28;20411;-54
2022/12/07 10:48:23;;;;;;;7.07;6.23;;;7.00;1.00;;;;;;4997761;28;20500;-55
2022/12/07 10:51:20;;;;;;;10.77;5.60;;;6.90;1.00;;;;;;4999517;28;20439;-56
2022/12/07 10:54:18;;;;;;;8.20;5.90;;;6.80;1.00;;;;;;4998838;28;20439;-55
2022/12/07 10:56:55;;;;;;;8.57;5.73;;;6.80;1.00;;;;;;4997668;28;20944;-53
2022/12/07 10:59:39;;;;;;;9.33;5.43;;;6.90;1.00;;;;;;4987961;28;20417;-54
2022/12/07 11:02:10;;;;;;;7.70;5.63;;;7.00;1.00;;;;;;4996247;28;20575;-52
2022/12/07 11:05:00;;;;;;;9.40;6.47;;;6.90;1.00;;;;;;5000433;28;20494;-56
2022/12/07 11:07:44;;;;;;;9.07;5.90;;;7.00;1.00;;;;;;5004889;28;20447;-53
2022/12/07 11:10:21;;;;;;;6.50;5.80;;;6.90;1.00;;;;;;4998666;28;20415;-55
2022/12/07 11:13:23;;;;;;;7.20;5.67;;;6.90;1.00;;;;;;5002205;28;20466;-54
2022/12/07 11:16:21;;;;;;;10.13;5.97;;;7.10;1.00;;;;;;5000229;28;20976;-55
2022/12/07 11:19:10;;;;;;;7.53;5.97;;;7.20;1.00;;;;;;4994370;28;20434;-54
2022/12/07 11:21:50;;;;;;;7.20;5.67;;;7.30;1.00;;;;;;5001435;28;20468;-53
2022/12/07 11:24:25;;;;;;;9.60;5.97;;;7.20;1.00;;;;;;4998678;28;20459;-51
2022/12/07 11:27:22;;;;;;;7.80;5.67;;;7.20;1.00;;;;;;5007759;28;20755;-55
2022/12/07 11:29:55;;;;;;;7.87;5.37;;;7.20;1.00;;;;;;5003889;28;20436;-55
2022/12/07 11:32:51;;;;;;;8.37;5.53;;;7.00;1.00;;;;;;4999491;28;20469;-54
2022/12/07 11:35:52;;;;;;;7.30;6.50;;;6.90;1.00;;;;;;4997692;28;20448;-54
2022/12/07 11:38:45;;;;;;;7.33;6.00;;;7.00;1.00;;;;;;4993282;28;20439;-54
2022/12/07 11:41:12;;;;;;;9.30;6.77;;;6.60;1.00;;;;;;4981722;28;20579;-51
2022/12/07 11:43:50;;;;;;;9.10;6.63;;;6.20;1.00;;;;;;5005490;28;20467;-56
2022/12/07 11:46:17;;;;;;;7.33;6.20;;;6.00;1.00;;;;;;4996012;28;20418;-55
2022/12/07 11:48:57;;;;;;;11.23;7.00;;;5.70;1.00;;;;;;4994371;28;20595;-54
2022/12/07 11:51:25;;;;;;;10.27;7.37;;;5.60;1.00;;;;;;4993573;28;20443;-54
2022/12/07 11:54:16;;;;;;;10.10;7.17;;;5.80;1.00;;;;;;5000191;28;20449;-55
2022/12/07 11:56:43;;;;;;;8.83;7.00;;;6.00;1.00;;;;;;4970177;28;20468;-55
2022/12/07 11:59:29;;;;;;;11.60;6.70;;;6.10;1.00;;;;;;5005008;28;20573;-52
2022/12/07 12:01:57;;;;;;;12.43;7.83;;;6.20;1.00;;;;;;4984709;28;20478;-56
2022/12/07 12:04:28;;;;;;;7.17;6.30;;;6.10;1.00;;;;;;5005029;28;20839;-53
2022/12/07 12:06:57;;;;;;;8.80;6.60;;;6.10;1.00;;;;;;5002969;28;20434;-55
2022/12/07 12:09:32;;;;;;;10.70;7.83;;;6.10;1.00;;;;;;4996690;28;20435;-55
2022/12/07 12:12:06;;;;;;;9.90;7.00;;;6.20;1.00;;;;;;4995786;28;20474;-54
2022/12/07 12:14:57;;;;;;;10.80;7.67;;;6.50;1.00;;;;;;4967912;28;20446;-52
2022/12/07 12:17:22;;;;;;;15.47;7.87;;;6.50;1.00;;;;;;4997479;28;20419;-54
2022/12/07 12:20:15;;;;;;;15.07;8.83;;;6.70;1.00;;;;;;5003983;28;20801;-53
2022/12/07 12:22:47;;;;;;;11.23;8.40;;;6.80;1.00;;;;;;4983889;28;20188;-53
2022/12/07 12:25:25;;;;;;;9.40;7.10;;;6.90;1.00;;;;;;4996061;28;20479;-53
2022/12/07 12:27:55;;;;;;;11.60;8.93;;;6.90;1.00;;;;;;4986020;28;20456;-55
2022/12/07 12:30:37;;;;;;;9.70;8.50;;;6.80;1.00;;;;;;5006299;28;20506;-54
2022/12/07 12:33:30;;;;;;;10.50;7.83;;;6.90;1.00;;;;;;5007132;28;20414;-51
2022/12/07 12:36:16;;;;;;;7.90;6.77;;;6.90;1.00;;;;;;5004927;28;20477;-56
2022/12/07 12:39:06;;;;;;;8.40;6.27;;;6.90;1.00;;;;;;4949940;28;20516;-55
2022/12/07 12:41:38;;;;;;;9.37;7.03;;;6.80;1.00;;;;;;4995899;28;20436;-54
2022/12/07 12:44:17;;;;;;;7.47;5.93;;;6.70;1.00;;;;;;5002080;28;20522;-55
2022/12/07 12:47:02;;;;;;;4.93;3.63;;;6.70;1.00;;;;;;5001507;28;20464;-55
2022/12/07 12:49:28;;;;;;;3.67;2.77;;;6.50;1.00;;;;;;5004669;28;20454;-54
2022/12/07 12:51:59;;;;;;;5.23;3.33;;;6.20;1.00;;;;;;5003847;28;20432;-52
2022/12/07 12:54:30;;;;;;;7.63;2.80;;;6.10;1.00;;;;;;4996513;28;20631;-52
2022/12/07 12:56:58;;;;;;;4.30;2.93;;;6.10;1.00;;;;;;5003117;28;20528;-54
2022/12/07 12:59:26;;;;;;;6.40;2.27;;;6.10;1.00;;;;;;5002590;28;20523;-53
2022/12/07 13:01:56;;;;;;;2.50;2.30;;;6.00;1.00;;;;;;5004801;28;20440;-52
2022/12/07 13:04:26;;;;;;;5.10;2.53;;;6.10;1.00;;;;;;5010730;28;20470;-54
2022/12/07 13:06:53;;;;;;;3.20;2.67;;;5.60;1.00;;;;;;5007694;28;20446;-55
2022/12/07 13:09:23;;;;;;;2.73;2.00;;;5.50;1.00;;;;;;5001591;28;20453;-52
2022/12/07 13:11:54;;;;;;;1.80;1.27;;;5.20;1.00;;;;;;4998617;28;20968;-53
2022/12/07 13:14:43;;;;;;;1.73;1.53;;;5.00;1.00;;;;;;4987779;28;20498;-54
2022/12/07 13:17:32;;;;;;;2.30;1.70;;;5.00;1.00;;;;;;5002329;28;20418;-55
2022/12/07 13:20:03;;;;;;;2.00;1.80;;;5.10;1.00;;;;;;5005109;28;20935;-55
2022/12/07 13:22:37;;;;;;;3.70;2.10;;;5.00;1.00;;;;;;5005092;28;20532;-55